Time;durP1;ratioP1;P1;durP2;ratioP2;P2;SDS_P1;SDS_P2;PMS_P1;PMS_P2;Temp;Humidity;BMP_temperature;BMP_pressure;BME280_temperature;BME280_humidity;BME280_pressure;Samples;Min_cycle;Max_cycle;Signal;HPM_P1;HPM_P2
2022/12/23 00:00:37;;;;;;;5.13;3.35;;;8.80;99.90;;;;;;5008422;28;20053;-72
2022/12/23 00:03:04;;;;;;;10.48;3.45;;;8.80;99.90;;;;;;5010042;28;20049;-72
2022/12/23 00:05:35;;;;;;;4.57;2.80;;;8.80;99.90;;;;;;5011919;28;20207;-71
2022/12/23 00:08:05;;;;;;;7.32;2.50;;;8.80;99.90;;;;;;5000402;28;20054;-72
2022/12/23 00:10:32;;;;;;;5.40;2.75;;;8.80;99.90;;;;;;5006388;28;20887;-71
2022/12/23 00:15:44;;;;;;;6.38;3.53;;;8.80;99.90;;;;;;4998835;28;20069;-72
2022/12/23 00:18:11;;;;;;;8.75;3.40;;;8.80;99.90;;;;;;4999974;28;20387;-71
2022/12/23 00:20:37;;;;;;;12.30;3.58;;;8.80;99.90;;;;;;4976098;28;20056;-72
2022/12/23 00:23:05;;;;;;;11.90;4.32;;;8.90;99.90;;;;;;5003504;28;20083;-72
2022/12/23 00:25:39;;;;;;;10.35;3.50;;;8.80;99.90;;;;;;4999137;28;20149;-71
2022/12/23 00:28:23;;;;;;;5.95;3.10;;;8.80;99.90;;;;;;5005680;28;20604;-71
2022/12/23 00:30:57;;;;;;;7.80;3.80;;;8.80;99.90;;;;;;4998771;28;20459;-71
2022/12/23 00:33:27;;;;;;;7.07;3.40;;;8.80;99.90;;;;;;4999578;28;20041;-71
2022/12/23 00:35:54;;;;;;;7.25;3.03;;;8.80;99.90;;;;;;5005518;28;20132;-71
2022/12/23 00:43:56;;;;;;;7.57;3.08;;;8.80;99.90;;;;;;5008638;28;19921;-71
2022/12/23 00:46:23;;;;;;;5.50;3.42;;;8.80;99.90;;;;;;5001693;28;20041;-71
2022/12/23 00:51:35;;;;;;;5.95;3.67;;;8.80;99.90;;;;;;5003864;28;20716;-71
2022/12/23 00:54:02;;;;;;;7.78;2.50;;;8.80;99.90;;;;;;5001349;28;20054;-71
2022/12/23 00:56:29;;;;;;;8.93;3.47;;;8.80;99.90;;;;;;5013868;28;20056;-71
2022/12/23 00:58:56;;;;;;;6.82;3.13;;;8.80;99.90;;;;;;5011055;28;20045;-71
2022/12/23 01:07:03;;;;;;;7.82;3.78;;;8.90;99.90;;;;;;4999861;28;20069;-70
2022/12/23 01:09:30;;;;;;;12.43;4.75;;;8.80;99.90;;;;;;5004495;28;20052;-70
2022/12/23 01:11:57;;;;;;;12.60;4.45;;;8.80;99.90;;;;;;5002553;28;20046;-70
2022/12/23 01:14:24;;;;;;;11.43;5.10;;;8.80;99.90;;;;;;5000555;28;20041;-71
2022/12/23 01:16:51;;;;;;;13.50;5.47;;;8.80;99.90;;;;;;5011410;28;20037;-71
2022/12/23 01:19:18;;;;;;;12.23;4.88;;;8.90;99.90;;;;;;4985846;28;20091;-71
2022/12/23 01:21:45;;;;;;;14.10;5.57;;;8.80;99.90;;;;;;4980903;28;20501;-72
2022/12/23 01:24:11;;;;;;;13.75;5.90;;;8.80;99.90;;;;;;5008228;28;20056;-72
2022/12/23 01:26:38;;;;;;;12.02;6.18;;;8.80;99.90;;;;;;5010778;28;20045;-71
2022/12/23 01:29:05;;;;;;;14.23;7.47;;;8.80;99.90;;;;;;5003832;28;20042;-71
2022/12/23 01:31:31;;;;;;;14.65;7.07;;;8.80;99.90;;;;;;4989401;28;20052;-72
2022/12/23 01:33:58;;;;;;;12.57;7.28;;;8.70;99.90;;;;;;5004020;28;20309;-71
2022/12/23 01:36:25;;;;;;;14.30;7.20;;;8.80;99.90;;;;;;5009620;28;20045;-71
2022/12/23 01:38:54;;;;;;;13.10;6.90;;;8.80;99.90;;;;;;5015549;28;20044;-71
2022/12/23 01:44:51;;;;;;;13.73;7.65;;;8.80;99.90;;;;;;5001561;28;20248;-71
2022/12/23 01:47:35;;;;;;;17.58;7.97;;;8.80;99.90;;;;;;5000830;28;20055;-71
2022/12/23 01:50:24;;;;;;;21.38;8.75;;;8.80;99.90;;;;;;4999974;28;20049;-71
2022/12/23 01:52:56;;;;;;;16.30;8.50;;;8.80;99.90;;;;;;5003204;28;20068;-72
2022/12/23 01:55:37;;;;;;;18.73;9.32;;;8.80;99.90;;;;;;5003245;28;20423;-72
2022/12/23 01:58:14;;;;;;;19.33;9.18;;;8.80;99.90;;;;;;4999436;28;20092;-71
2022/12/23 02:03:42;;;;;;;24.23;9.95;;;8.90;99.90;;;;;;4997153;28;20712;-70
2022/12/23 02:09:17;;;;;;;22.95;10.98;;;8.80;99.90;;;;;;5013187;28;20064;-69
2022/12/23 02:11:59;;;;;;;21.65;9.50;;;8.80;99.90;;;;;;5030012;28;20051;-69
2022/12/23 02:17:27;;;;;;;21.13;9.93;;;8.90;99.90;;;;;;5013624;28;20095;-70
2022/12/23 02:20:37;;;;;;;30.92;10.35;;;8.80;99.90;;;;;;5001028;28;20060;-70
2022/12/23 02:23:39;;;;;;;26.58;11.68;;;8.90;99.90;;;;;;4993060;28;20038;-70
2022/12/23 02:26:29;;;;;;;24.13;10.95;;;8.80;99.90;;;;;;5003958;28;20042;-70
2022/12/23 02:29:11;;;;;;;18.88;10.30;;;8.80;99.90;;;;;;5012916;28;20057;-70
2022/12/23 02:32:00;;;;;;;30.80;12.70;;;8.80;99.90;;;;;;5018109;28;20042;-71
2022/12/23 02:35:05;;;;;;;29.40;11.18;;;8.90;99.90;;;;;;4985427;28;20132;-71
2022/12/23 02:37:53;;;;;;;27.98;11.73;;;8.90;99.90;;;;;;4939956;28;20039;-70
2022/12/23 02:40:26;;;;;;;34.55;11.52;;;8.90;99.90;;;;;;5023888;23;20060;-79
2022/12/23 02:43:18;;;;;;;30.60;11.45;;;8.90;99.90;;;;;;4991914;28;20053;-78
2022/12/23 02:45:53;;;;;;;26.63;12.23;;;8.90;99.90;;;;;;4985560;28;20054;-79
2022/12/23 02:48:48;;;;;;;31.27;13.23;;;8.80;99.90;;;;;;4979945;28;20050;-79
2022/12/23 02:51:15;;;;;;;31.02;12.20;;;8.80;99.90;;;;;;4992570;28;20133;-80
2022/12/23 02:53:53;;;;;;;26.25;11.15;;;8.80;99.90;;;;;;4996445;28;20913;-79
2022/12/23 02:56:22;;;;;;;29.63;12.52;;;8.70;99.90;;;;;;4982218;28;20540;-79
2022/12/23 02:59:00;;;;;;;32.70;14.60;;;8.70;99.90;;;;;;4995442;28;20555;-79
2022/12/23 03:01:29;;;;;;;38.70;14.05;;;8.70;99.90;;;;;;4987750;28;20042;-79
2022/12/23 03:03:56;;;;;;;34.08;14.27;;;8.70;99.90;;;;;;4978876;28;20077;-78
2022/12/23 03:06:38;;;;;;;30.83;13.77;;;8.70;99.90;;;;;;4979243;28;21378;-79
2022/12/23 03:09:05;;;;;;;30.20;12.52;;;8.60;99.90;;;;;;4980977;28;20107;-79
2022/12/23 03:11:55;;;;;;;37.10;14.95;;;8.60;99.90;;;;;;4993852;28;20175;-79
2022/12/23 03:14:35;;;;;;;31.42;16.55;;;8.60;99.90;;;;;;4977637;28;20545;-79
2022/12/23 03:17:24;;;;;;;39.03;15.63;;;8.70;99.90;;;;;;4989511;28;20046;-79
2022/12/23 03:20:00;;;;;;;34.65;14.40;;;8.70;99.90;;;;;;4984881;28;20056;-79
2022/12/23 03:22:42;;;;;;;38.63;16.65;;;8.70;99.90;;;;;;4979473;28;20732;-79
2022/12/23 03:25:18;;;;;;;36.13;16.08;;;8.70;99.90;;;;;;4981010;28;20463;-79
2022/12/23 03:28:05;;;;;;;42.70;18.88;;;8.70;99.90;;;;;;4997703;28;20073;-80
2022/12/23 03:30:34;;;;;;;44.20;17.50;;;8.70;99.90;;;;;;4982283;28;20041;-80
2022/12/23 03:33:08;;;;;;;34.72;17.08;;;8.70;99.90;;;;;;4986182;28;20442;-79
2022/12/23 03:35:58;;;;;;;37.05;16.90;;;8.70;99.90;;;;;;4995016;28;20042;-79
2022/12/23 03:38:26;;;;;;;28.88;14.82;;;8.70;99.90;;;;;;5002396;28;20046;-80
2022/12/23 03:40:57;;;;;;;32.63;15.55;;;8.70;99.90;;;;;;5002059;28;20042;-81
2022/12/23 03:43:29;;;;;;;28.58;13.07;;;8.70;99.90;;;;;;4997551;28;20053;-77
2022/12/23 03:46:07;;;;;;;34.22;13.82;;;8.70;99.90;;;;;;4983062;28;20050;-78
2022/12/23 03:48:55;;;;;;;27.48;13.45;;;8.70;99.90;;;;;;4998808;28;20052;-80
2022/12/23 03:51:27;;;;;;;34.05;14.98;;;8.70;99.90;;;;;;4987691;28;20133;-78
2022/12/23 03:54:06;;;;;;;30.77;13.65;;;8.70;99.90;;;;;;4969160;28;20620;-79
2022/12/23 03:56:42;;;;;;;31.42;15.10;;;8.70;99.90;;;;;;4992311;28;20046;-79
2022/12/23 03:59:22;;;;;;;34.30;17.65;;;8.70;99.90;;;;;;4975540;28;20136;-78
2022/12/23 04:01:58;;;;;;;34.33;16.90;;;8.70;99.90;;;;;;4967131;28;20104;-78
2022/12/23 04:04:33;;;;;;;43.10;19.45;;;8.70;99.90;;;;;;4996937;28;20053;-78
2022/12/23 04:07:09;;;;;;;37.25;18.63;;;8.70;99.90;;;;;;5002407;28;20553;-79
2022/12/23 04:09:37;;;;;;;46.72;20.73;;;8.80;99.90;;;;;;4998214;28;20136;-79
2022/12/23 04:12:05;;;;;;;43.13;19.92;;;8.80;99.90;;;;;;4986295;28;20053;-79
2022/12/23 04:14:34;;;;;;;35.38;18.27;;;8.80;99.90;;;;;;4987100;28;20066;-77
2022/12/23 04:17:00;;;;;;;44.60;21.83;;;8.80;99.90;;;;;;5004365;28;20114;-82
2022/12/23 04:19:27;;;;;;;49.67;22.77;;;8.80;99.90;;;;;;4982757;28;20057;-79
2022/12/23 04:21:56;;;;;;;56.53;22.75;;;8.80;99.90;;;;;;5000347;28;20056;-78
2022/12/23 04:24:23;;;;;;;56.22;24.00;;;8.80;99.90;;;;;;4998424;28;20049;-78
2022/12/23 04:26:49;;;;;;;51.85;22.58;;;8.80;99.90;;;;;;4991591;28;20096;-79
2022/12/23 04:29:16;;;;;;;46.17;20.13;;;8.80;99.90;;;;;;5009954;28;20041;-79
2022/12/23 04:31:43;;;;;;;39.20;16.77;;;8.80;99.90;;;;;;5003093;28;20058;-79
2022/12/23 04:34:10;;;;;;;53.50;21.88;;;8.80;99.90;;;;;;4995914;28;20062;-80
2022/12/23 04:36:36;;;;;;;38.90;19.42;;;8.80;99.90;;;;;;5003802;28;20176;-80
2022/12/23 04:39:03;;;;;;;44.05;20.27;;;8.80;99.90;;;;;;4999678;28;20507;-78
2022/12/23 04:41:30;;;;;;;48.90;21.13;;;8.80;99.90;;;;;;4995237;28;20077;-79
2022/12/23 04:43:56;;;;;;;54.83;24.58;;;8.80;99.90;;;;;;4994714;28;20108;-78
2022/12/23 04:46:23;;;;;;;75.45;27.75;;;8.80;99.90;;;;;;4991467;28;20128;-79
2022/12/23 04:48:50;;;;;;;65.47;24.00;;;8.80;99.90;;;;;;4986093;28;20045;-79
2022/12/23 04:51:16;;;;;;;89.75;34.80;;;8.80;99.90;;;;;;4979730;28;20045;-79
2022/12/23 04:53:43;;;;;;;98.40;35.08;;;8.80;99.90;;;;;;4990898;28;20050;-79
2022/12/23 04:56:10;;;;;;;94.38;34.78;;;8.90;99.90;;;;;;4995678;28;20128;-79
2022/12/23 04:58:37;;;;;;;118.43;42.50;;;8.80;99.90;;;;;;4992180;28;20050;-79
2022/12/23 05:01:08;;;;;;;92.68;34.33;;;8.80;99.90;;;;;;4974872;28;20046;-79
2022/12/23 05:03:36;;;;;;;99.30;36.63;;;8.90;99.90;;;;;;4982270;28;20057;-79
2022/12/23 05:06:04;;;;;;;103.70;35.78;;;8.80;99.90;;;;;;4998674;28;20511;-79
2022/12/23 05:08:31;;;;;;;114.68;35.53;;;8.80;99.90;;;;;;4994248;28;20535;-78
2022/12/23 05:10:58;;;;;;;116.85;40.35;;;8.80;99.90;;;;;;4982010;28;20454;-78
2022/12/23 05:13:25;;;;;;;95.28;35.33;;;8.90;99.90;;;;;;4994432;28;20082;-78
2022/12/23 05:15:53;;;;;;;101.90;36.90;;;8.90;99.90;;;;;;4977491;28;20126;-79
2022/12/23 05:18:21;;;;;;;99.35;36.08;;;8.80;99.90;;;;;;4994905;28;20050;-79
2022/12/23 05:20:48;;;;;;;88.07;34.10;;;8.80;99.90;;;;;;4992757;28;20470;-78
2022/12/23 05:23:15;;;;;;;102.50;37.22;;;8.80;99.90;;;;;;4975848;28;20047;-78
2022/12/23 05:25:42;;;;;;;105.78;36.50;;;8.80;99.90;;;;;;4978123;28;20031;-78
2022/12/23 05:28:09;;;;;;;106.00;36.10;;;8.80;99.90;;;;;;4989249;28;20056;-78
2022/12/23 05:30:35;;;;;;;102.65;37.22;;;8.80;99.90;;;;;;4995798;28;20052;-78
2022/12/23 05:33:02;;;;;;;108.07;37.10;;;8.80;99.90;;;;;;4988380;28;20112;-79
2022/12/23 05:35:29;;;;;;;87.95;34.70;;;8.80;99.90;;;;;;4980848;28;20546;-79
2022/12/23 05:37:56;;;;;;;106.35;35.72;;;8.80;99.90;;;;;;4996668;28;20050;-79
2022/12/23 05:40:23;;;;;;;116.78;42.78;;;8.80;99.90;;;;;;4991500;28;20073;-78
2022/12/23 05:42:57;;;;;;;144.43;44.88;;;8.80;99.90;;;;;;4972852;28;20136;-78
2022/12/23 05:45:24;;;;;;;120.55;40.85;;;8.80;99.90;;;;;;4978686;28;20164;-78
2022/12/23 05:47:51;;;;;;;131.23;43.25;;;8.80;99.90;;;;;;4992588;28;20116;-78
2022/12/23 05:50:21;;;;;;;129.13;44.70;;;8.80;99.90;;;;;;4968203;28;20060;-78
2022/12/23 05:52:48;;;;;;;116.03;43.28;;;8.80;99.90;;;;;;4983647;28;20053;-78
2022/12/23 05:55:15;;;;;;;104.90;38.15;;;8.80;99.90;;;;;;4986229;28;20475;-79
2022/12/23 05:57:41;;;;;;;108.05;40.58;;;8.80;99.90;;;;;;4962906;28;20037;-78
2022/12/23 06:00:09;;;;;;;120.13;42.97;;;8.80;99.90;;;;;;4976749;28;20132;-78
2022/12/23 06:02:39;;;;;;;137.02;46.53;;;8.80;99.90;;;;;;4989772;28;20492;-78
2022/12/23 06:05:06;;;;;;;134.38;46.65;;;8.80;99.90;;;;;;4976907;28;20093;-79
2022/12/23 06:07:33;;;;;;;184.50;54.55;;;8.80;99.90;;;;;;4994134;28;20122;-78
2022/12/23 06:10:00;;;;;;;118.38;41.28;;;8.80;99.90;;;;;;4988636;28;20691;-78
2022/12/23 06:12:27;;;;;;;130.95;45.30;;;8.80;99.90;;;;;;4985432;28;20038;-79
2022/12/23 06:14:53;;;;;;;124.88;42.22;;;8.80;99.90;;;;;;4978125;28;20058;-78
2022/12/23 06:17:20;;;;;;;122.38;42.22;;;8.80;99.90;;;;;;4992087;28;20060;-78
2022/12/23 06:19:47;;;;;;;118.90;40.67;;;8.80;99.90;;;;;;4984459;28;20058;-78
2022/12/23 06:22:17;;;;;;;126.03;44.47;;;8.80;99.90;;;;;;4961578;28;20062;-77
2022/12/23 06:24:44;;;;;;;139.10;48.35;;;8.80;99.90;;;;;;4967718;28;20140;-78
2022/12/23 06:27:10;;;;;;;147.60;45.30;;;8.80;99.90;;;;;;4977263;28;20046;-77
2022/12/23 06:29:37;;;;;;;140.45;45.25;;;8.80;99.90;;;;;;4996626;28;20573;-79
2022/12/23 06:32:04;;;;;;;130.77;45.90;;;8.80;99.90;;;;;;4971490;28;20045;-78
2022/12/23 06:34:31;;;;;;;99.45;34.42;;;8.80;99.90;;;;;;4994291;28;20054;-78
2022/12/23 06:36:58;;;;;;;96.57;36.25;;;8.70;99.90;;;;;;4976406;28;20043;-78
2022/12/23 06:39:25;;;;;;;84.32;31.75;;;8.80;99.90;;;;;;4985387;28;20054;-78
2022/12/23 06:41:52;;;;;;;89.40;33.00;;;8.70;99.90;;;;;;4973580;28;20048;-77
2022/12/23 06:44:19;;;;;;;104.88;37.22;;;8.80;99.90;;;;;;4992992;28;20133;-78
2022/12/23 06:46:45;;;;;;;106.35;38.25;;;8.80;99.90;;;;;;4972951;28;20519;-78
2022/12/23 06:49:12;;;;;;;109.40;38.35;;;8.80;99.90;;;;;;4973891;28;20050;-79
2022/12/23 06:51:40;;;;;;;96.18;36.22;;;8.80;99.90;;;;;;4990651;28;20046;-79
2022/12/23 06:54:10;;;;;;;105.88;38.20;;;8.80;99.90;;;;;;4970304;28;20112;-78
2022/12/23 06:56:37;;;;;;;83.45;32.58;;;8.80;99.90;;;;;;4996804;28;20057;-78
2022/12/23 06:59:04;;;;;;;108.93;37.22;;;8.70;99.90;;;;;;4999996;23;20134;-71
2022/12/23 07:01:31;;;;;;;85.65;33.80;;;8.80;99.90;;;;;;4987850;28;20602;-73
2022/12/23 07:03:58;;;;;;;92.88;34.50;;;8.70;99.90;;;;;;4981080;28;20077;-73
2022/12/23 07:06:24;;;;;;;85.03;32.72;;;8.70;99.90;;;;;;4980647;28;21104;-71
2022/12/23 07:08:51;;;;;;;85.72;33.03;;;8.70;99.90;;;;;;4996536;28;20070;-73
2022/12/23 07:11:18;;;;;;;84.55;32.67;;;8.70;99.90;;;;;;4990350;28;20119;-73
2022/12/23 07:13:45;;;;;;;83.43;33.83;;;8.70;99.90;;;;;;4974803;28;20068;-73
2022/12/23 07:16:12;;;;;;;77.20;27.85;;;8.70;99.90;;;;;;4994447;28;20476;-73
2022/12/23 07:18:39;;;;;;;74.45;30.33;;;8.70;99.90;;;;;;4995417;28;20079;-72
2022/12/23 07:21:06;;;;;;;80.93;31.70;;;8.70;99.90;;;;;;4990149;28;20492;-72
2022/12/23 07:23:43;;;;;;;79.40;30.35;;;8.70;99.90;;;;;;4993044;28;20131;-72
2022/12/23 07:26:10;;;;;;;78.15;30.38;;;8.70;99.90;;;;;;4993295;28;20160;-73
2022/12/23 07:28:37;;;;;;;86.30;31.63;;;8.70;99.90;;;;;;4995291;28;20138;-72
2022/12/23 07:31:07;;;;;;;86.13;33.33;;;8.70;99.90;;;;;;4976637;28;20085;-73
2022/12/23 07:33:33;;;;;;;80.03;31.33;;;8.70;99.90;;;;;;4990007;28;20116;-73
2022/12/23 07:36:00;;;;;;;83.68;32.63;;;8.70;99.90;;;;;;5005242;28;20034;-73
2022/12/23 07:38:28;;;;;;;87.22;32.63;;;8.70;99.90;;;;;;4990957;28;20285;-73
2022/12/23 07:40:54;;;;;;;89.43;32.72;;;8.70;99.90;;;;;;4993480;28;20070;-73
2022/12/23 07:43:21;;;;;;;82.78;32.53;;;8.70;99.90;;;;;;4990174;28;21252;-73
2022/12/23 07:45:47;;;;;;;89.25;32.97;;;8.70;99.90;;;;;;4994306;28;20109;-73
2022/12/23 07:48:23;;;;;;;92.70;33.20;;;8.70;99.90;;;;;;4990751;28;20075;-72
2022/12/23 07:50:50;;;;;;;102.38;34.38;;;8.70;99.90;;;;;;4993214;28;20038;-72
2022/12/23 07:53:17;;;;;;;109.38;36.78;;;8.70;99.90;;;;;;4993612;28;20693;-72
2022/12/23 07:55:44;;;;;;;82.90;31.83;;;8.70;99.90;;;;;;5000990;28;20045;-72
2022/12/23 07:58:11;;;;;;;100.88;35.72;;;8.70;99.90;;;;;;4995453;28;20029;-72
2022/12/23 08:00:37;;;;;;;88.93;34.00;;;8.70;99.90;;;;;;4990046;28;20085;-72
2022/12/23 08:03:04;;;;;;;84.78;31.08;;;8.70;99.90;;;;;;4996649;28;20555;-73
2022/12/23 08:05:31;;;;;;;87.53;31.88;;;8.70;99.90;;;;;;4991478;28;20046;-72
2022/12/23 08:07:58;;;;;;;95.30;33.53;;;8.70;99.90;;;;;;4995858;28;20579;-73
2022/12/23 08:10:24;;;;;;;96.10;34.67;;;8.70;99.90;;;;;;4988258;28;20094;-73
2022/12/23 08:12:51;;;;;;;89.90;32.10;;;8.70;99.90;;;;;;4997214;28;20499;-73
2022/12/23 08:15:18;;;;;;;91.80;29.45;;;8.70;99.90;;;;;;4990350;28;20294;-73
2022/12/23 08:17:45;;;;;;;89.72;29.50;;;8.70;99.90;;;;;;4988530;28;20118;-74
2022/12/23 08:20:12;;;;;;;90.55;29.55;;;8.70;99.90;;;;;;4993244;28;20068;-74
2022/12/23 08:22:38;;;;;;;81.25;28.63;;;8.70;99.90;;;;;;4977470;28;21795;-74
2022/12/23 08:25:05;;;;;;;87.45;26.27;;;8.70;99.90;;;;;;4995072;28;20030;-73
2022/12/23 08:27:32;;;;;;;85.18;29.52;;;8.70;99.90;;;;;;4995209;28;20049;-74
2022/12/23 08:29:59;;;;;;;92.65;30.58;;;8.70;99.90;;;;;;4978870;28;20037;-73
2022/12/23 08:32:26;;;;;;;71.45;24.63;;;8.70;99.90;;;;;;4990233;28;20344;-73
2022/12/23 08:34:57;;;;;;;79.63;26.40;;;8.70;99.90;;;;;;4978770;28;20518;-73
2022/12/23 08:37:24;;;;;;;60.40;21.20;;;8.70;99.90;;;;;;4989237;28;20046;-72
2022/12/23 08:39:51;;;;;;;76.15;25.52;;;8.60;99.90;;;;;;4996216;28;20073;-73
2022/12/23 08:42:18;;;;;;;77.35;25.23;;;8.60;99.90;;;;;;4968655;28;20068;-73
2022/12/23 08:44:45;;;;;;;62.67;22.95;;;8.70;99.90;;;;;;4991760;28;20107;-73
2022/12/23 08:47:12;;;;;;;79.13;26.42;;;8.70;99.90;;;;;;4992038;28;20133;-73
2022/12/23 08:49:39;;;;;;;76.65;25.88;;;8.70;99.90;;;;;;5001658;28;20107;-73
2022/12/23 08:52:05;;;;;;;66.88;23.75;;;8.70;99.90;;;;;;4989835;28;20304;-72
2022/12/23 08:54:32;;;;;;;76.45;24.70;;;8.70;99.90;;;;;;5007170;23;20045;-79
2022/12/23 08:56:59;;;;;;;49.28;18.92;;;8.80;99.90;;;;;;5028147;28;20462;-79
2022/12/23 08:59:26;;;;;;;52.60;18.50;;;8.80;99.90;;;;;;5013041;28;20055;-81
2022/12/23 09:01:52;;;;;;;47.25;19.35;;;8.70;99.90;;;;;;5021213;28;20042;-79
2022/12/23 09:04:19;;;;;;;57.90;22.05;;;8.70;99.90;;;;;;5015356;28;20152;-79
2022/12/23 09:06:46;;;;;;;71.15;25.05;;;8.70;99.90;;;;;;5025359;28;20561;-79
2022/12/23 09:09:14;;;;;;;80.07;25.17;;;8.70;99.90;;;;;;5005091;28;20096;-79
2022/12/23 09:11:41;;;;;;;65.38;21.55;;;8.80;99.90;;;;;;5056067;28;20115;-79
2022/12/23 09:14:09;;;;;;;43.28;16.20;;;8.70;99.90;;;;;;5009618;28;20053;-80
2022/12/23 09:16:35;;;;;;;40.95;17.27;;;8.70;99.90;;;;;;5030914;28;20144;-79
2022/12/23 09:19:03;;;;;;;47.13;17.55;;;8.70;99.90;;;;;;5006810;28;20617;-81
2022/12/23 09:21:29;;;;;;;51.72;20.35;;;8.70;99.90;;;;;;5021206;28;20040;-79
2022/12/23 09:23:56;;;;;;;60.38;19.48;;;8.80;99.90;;;;;;5028719;28;20063;-79
2022/12/23 09:26:28;;;;;;;42.97;15.95;;;8.70;99.90;;;;;;5021405;28;20038;-79
2022/12/23 09:28:56;;;;;;;35.50;13.05;;;8.80;99.90;;;;;;5019124;28;20064;-80
2022/12/23 09:31:23;;;;;;;29.83;12.70;;;8.80;99.90;;;;;;5029089;28;20546;-78
2022/12/23 09:33:55;;;;;;;35.33;14.45;;;8.80;99.90;;;;;;5024304;28;20279;-80
2022/12/23 09:36:22;;;;;;;44.30;14.77;;;8.90;99.90;;;;;;5022960;28;20056;-81
2022/12/23 09:38:54;;;;;;;39.00;15.77;;;8.80;99.90;;;;;;5013409;28;20052;-80
2022/12/23 09:41:27;;;;;;;52.10;16.65;;;8.90;99.90;;;;;;5005756;28;20045;-80
2022/12/23 09:44:29;;;;;;;34.20;12.55;;;8.90;99.90;;;;;;5029397;28;20042;-81
2022/12/23 09:47:00;;;;;;;27.95;10.95;;;8.80;99.90;;;;;;5022697;28;20048;-79
2022/12/23 09:49:27;;;;;;;27.75;13.13;;;8.80;99.90;;;;;;5009969;28;20080;-80
2022/12/23 09:52:00;;;;;;;33.45;13.02;;;8.80;99.90;;;;;;5024145;28;20132;-80
2022/12/23 09:54:30;;;;;;;31.00;11.35;;;8.80;99.90;;;;;;5037037;28;20053;-80
2022/12/23 09:57:03;;;;;;;32.35;12.02;;;8.70;99.90;;;;;;5017771;28;20136;-77
2022/12/23 10:00:05;;;;;;;30.27;12.10;;;8.60;99.90;;;;;;5019997;28;20067;-81
2022/12/23 10:02:38;;;;;;;32.17;13.02;;;8.60;99.90;;;;;;5013362;28;20045;-80
2022/12/23 10:05:35;;;;;;;52.87;20.97;;;8.70;99.90;;;;;;5011308;28;20132;-80
2022/12/23 10:08:11;;;;;;;49.85;20.80;;;8.70;99.90;;;;;;5026579;28;20378;-82
2022/12/23 10:10:49;;;;;;;42.90;16.88;;;8.80;99.90;;;;;;5022317;28;20124;-81
2022/12/23 10:13:25;;;;;;;45.83;15.38;;;8.80;99.90;;;;;;5003985;28;20132;-79
2022/12/23 10:15:54;;;;;;;40.80;17.02;;;8.90;99.90;;;;;;5005843;28;20469;-79
2022/12/23 10:18:46;;;;;;;31.42;11.57;;;8.90;99.90;;;;;;5008113;28;20054;-80
2022/12/23 10:21:35;;;;;;;34.90;13.05;;;8.90;99.90;;;;;;5015802;28;20533;-79
2022/12/23 10:24:11;;;;;;;44.72;15.15;;;8.90;99.90;;;;;;5016938;28;20042;-79
2022/12/23 10:26:45;;;;;;;51.67;16.10;;;8.90;99.90;;;;;;5005073;28;20485;-79
2022/12/23 10:29:29;;;;;;;57.25;18.65;;;9.00;99.90;;;;;;5021663;28;20115;-79
2022/12/23 10:32:02;;;;;;;59.22;18.27;;;9.00;99.90;;;;;;5024502;28;20055;-78
2022/12/23 10:34:51;;;;;;;75.00;23.33;;;9.00;99.90;;;;;;5016288;28;20053;-79
2022/12/23 10:37:43;;;;;;;85.63;23.23;;;9.00;99.90;;;;;;5013835;28;20461;-80
2022/12/23 10:40:32;;;;;;;88.82;23.63;;;9.00;99.90;;;;;;5020958;28;20673;-79
2022/12/23 10:43:08;;;;;;;96.90;26.63;;;9.00;99.90;;;;;;5036051;28;20041;-79
2022/12/23 10:45:50;;;;;;;89.85;24.25;;;9.00;99.90;;;;;;5047177;28;20037;-79
2022/12/23 10:48:29;;;;;;;83.68;25.38;;;9.00;99.90;;;;;;5024183;28;20048;-79
2022/12/23 10:51:37;;;;;;;82.38;23.33;;;9.00;99.90;;;;;;5051109;28;20100;-81
2022/12/23 10:54:24;;;;;;;134.05;28.67;;;9.00;99.90;;;;;;5020341;28;20045;-81
2022/12/23 10:56:52;;;;;;;126.10;32.53;;;9.00;99.90;;;;;;5028893;28;20051;-80
2022/12/23 10:59:29;;;;;;;124.32;33.10;;;8.90;99.90;;;;;;5010320;28;20046;-81
2022/12/23 11:02:04;;;;;;;105.20;32.03;;;8.90;99.90;;;;;;5023918;28;20045;-80
2022/12/23 11:04:36;;;;;;;81.32;23.75;;;8.90;99.90;;;;;;5027136;28;20050;-79
2022/12/23 11:07:04;;;;;;;57.17;18.70;;;9.00;99.90;;;;;;5029462;28;20047;-80
2022/12/23 11:09:59;;;;;;;64.40;23.80;;;9.00;99.90;;;;;;5016732;28;20098;-79
2022/12/23 11:12:41;;;;;;;79.72;37.20;;;9.00;99.90;;;;;;5011523;28;20045;-79
2022/12/23 11:15:27;;;;;;;46.10;21.17;;;9.00;99.90;;;;;;5013962;28;20286;-79
2022/12/23 11:18:20;;;;;;;61.47;26.27;;;9.00;99.90;;;;;;5015425;28;20060;-80
2022/12/23 11:21:13;;;;;;;58.92;24.55;;;8.90;99.90;;;;;;5009584;28;20692;-80
2022/12/23 11:23:39;;;;;;;81.65;31.95;;;8.90;99.90;;;;;;5022866;28;20046;-81
2022/12/23 11:26:08;;;;;;;75.35;24.73;;;8.90;99.90;;;;;;5027183;28;20517;-80
2022/12/23 11:28:50;;;;;;;82.25;32.72;;;8.90;99.90;;;;;;5032627;28;20544;-81
2022/12/23 11:31:26;;;;;;;63.17;22.10;;;8.90;99.90;;;;;;5028616;28;20132;-81
2022/12/23 11:33:58;;;;;;;80.10;34.85;;;8.90;99.90;;;;;;5017943;28;20049;-81
2022/12/23 11:36:27;;;;;;;79.03;26.50;;;8.90;99.90;;;;;;5019942;28;20046;-81
2022/12/23 11:39:31;;;;;;;91.88;32.00;;;8.90;99.90;;;;;;5028358;28;20243;-82
2022/12/23 11:42:17;;;;;;;76.45;26.13;;;8.80;99.90;;;;;;4986790;28;20409;-82
2022/12/23 11:44:50;;;;;;;60.22;19.77;;;8.90;99.90;;;;;;5012643;28;20350;-82
2022/12/23 11:47:20;;;;;;;59.45;20.25;;;8.90;99.90;;;;;;5023312;28;20037;-83
2022/12/23 11:49:53;;;;;;;79.90;30.00;;;8.80;99.90;;;;;;5030319;28;20053;-82
2022/12/23 11:52:23;;;;;;;73.03;29.15;;;8.90;99.90;;;;;;5010585;28;20045;-82
2022/12/23 11:54:55;;;;;;;64.03;19.88;;;8.90;99.90;;;;;;5030158;28;20083;-82
2022/12/23 11:57:52;;;;;;;83.18;36.55;;;8.90;99.90;;;;;;5019401;28;20060;-81
2022/12/23 12:00:29;;;;;;;51.70;23.48;;;9.00;99.90;;;;;;5021732;28;20045;-81
2022/12/23 12:02:59;;;;;;;71.45;28.58;;;9.00;99.90;;;;;;5023609;28;20049;-81
2022/12/23 12:05:36;;;;;;;69.70;26.05;;;8.90;99.90;;;;;;5001721;28;20573;-80
2022/12/23 12:08:07;;;;;;;97.43;33.88;;;8.90;99.90;;;;;;5007006;28;20538;-80
2022/12/23 12:10:37;;;;;;;84.90;32.38;;;8.90;99.90;;;;;;5011461;28;20554;-80
2022/12/23 12:13:35;;;;;;;76.80;29.55;;;8.90;99.90;;;;;;5024480;28;20132;-79
2022/12/23 12:16:29;;;;;;;133.10;67.07;;;8.90;99.90;;;;;;5018444;28;20102;-80
2022/12/23 12:19:03;;;;;;;100.05;51.72;;;9.00;99.90;;;;;;5019997;28;20061;-79
2022/12/23 12:21:35;;;;;;;175.35;92.60;;;9.00;99.90;;;;;;5016951;28;20041;-79
2022/12/23 12:24:18;;;;;;;170.27;91.38;;;9.00;99.90;;;;;;5021045;28;20049;-79
2022/12/23 12:26:50;;;;;;;110.55;56.67;;;9.10;99.90;;;;;;5002407;28;20512;-79
2022/12/23 12:29:40;;;;;;;85.30;39.28;;;9.10;99.90;;;;;;5026094;28;20053;-79
2022/12/23 12:32:21;;;;;;;88.85;37.22;;;9.20;99.90;;;;;;5034607;28;20047;-79
2022/12/23 12:34:53;;;;;;;75.35;33.92;;;9.30;99.90;;;;;;5040541;28;20060;-79
2022/12/23 12:37:55;;;;;;;68.38;29.63;;;9.30;99.90;;;;;;5031518;28;20056;-79
2022/12/23 12:40:43;;;;;;;90.32;44.15;;;9.40;99.90;;;;;;5004571;28;20042;-79
2022/12/23 12:43:15;;;;;;;82.43;38.40;;;9.40;99.90;;;;;;5022371;28;20042;-79
2022/12/23 12:46:01;;;;;;;74.95;39.45;;;9.30;99.90;;;;;;5006197;28;20128;-80
2022/12/23 12:48:54;;;;;;;70.20;33.88;;;9.40;99.90;;;;;;5014319;28;20068;-79
2022/12/23 12:51:50;;;;;;;61.78;29.60;;;9.40;99.90;;;;;;5018782;28;20045;-80
2022/12/23 12:54:41;;;;;;;61.28;28.48;;;9.40;99.90;;;;;;5022639;28;20037;-80
2022/12/23 12:57:13;;;;;;;50.60;24.45;;;9.40;99.90;;;;;;5035117;28;20059;-79
2022/12/23 12:59:42;;;;;;;49.42;26.33;;;9.40;99.90;;;;;;5019822;28;20160;-80
2022/12/23 13:02:40;;;;;;;43.70;24.63;;;9.40;99.90;;;;;;4999536;28;20041;-78
2022/12/23 13:05:29;;;;;;;49.70;29.23;;;9.40;99.90;;;;;;5016492;28;20077;-79
2022/12/23 13:08:49;;;;;;;36.15;19.45;;;9.30;99.90;;;;;;5008233;28;20483;-78
2022/12/23 13:11:34;;;;;;;42.00;24.10;;;9.30;99.90;;;;;;5009452;28;20044;-80
2022/12/23 13:14:06;;;;;;;50.58;25.48;;;9.30;99.90;;;;;;5031021;28;20493;-77
2022/12/23 13:16:52;;;;;;;52.30;31.88;;;9.30;99.90;;;;;;5017682;28;20490;-78
2022/12/23 13:20:09;;;;;;;59.40;32.58;;;9.30;99.90;;;;;;5013559;28;20045;-78
2022/12/23 13:22:37;;;;;;;47.97;28.40;;;9.20;99.90;;;;;;5000574;28;20061;-79
2022/12/23 13:25:19;;;;;;;48.95;26.20;;;9.20;99.90;;;;;;5006014;28;20052;-79
2022/12/23 13:27:54;;;;;;;57.60;32.40;;;9.10;99.90;;;;;;5019549;28;20141;-79
2022/12/23 13:30:23;;;;;;;44.08;23.17;;;9.10;99.90;;;;;;5016098;28;20038;-79
2022/12/23 13:33:11;;;;;;;38.97;20.13;;;9.10;99.90;;;;;;5018065;28;20824;-77
2022/12/23 13:35:47;;;;;;;40.08;21.77;;;9.10;99.90;;;;;;5003602;28;20533;-80
2022/12/23 13:38:36;;;;;;;43.22;24.40;;;9.10;99.90;;;;;;5012235;28;20148;-78